Hauptseite
METAR-TAF:

METAR-TAF

Flughäfen :

Flughafen Verona

Verona, Italien

Breite: 45-23N, Länge: 010-52E, Höhe: 67 m

Beobachtung

Neuester Wetterbericht von vor 15 Minuten, um 19:50 UTC
Wind 4 kt aus West/Nordwest, variierte zwischen West und Nord/Nordwest
Temperatur 6°C
Luftfeuchtigkeit 93%
Luftdruck 1013 hPa
Sichtweite 10 km oder mehr
Leicht bewölkt in der Höhe von 2000 ft
Durchbrochene Bewölkung in der Höhe von 3500 ft
Leichtregen,

METAR: LIPX 221950Z 29004KT 270V330 9999 -RA FEW020 BKN035 06/05 Q1013

Zeit: 22:05 (20:05 UTC)

Prognose

Neuester Wetterbericht von vor 3 Stunden und 5 Minuten, um 17:00 UTC
Gültige Prognose vom 22 um 18 UTC bis 23 um 18 UTC
Wind 10 kt aus Ost
Sichtweite: 6000 m
Durchbrochene Bewölkung in der Höhe von 2000 ft
Regen
Übergehend zu
vom 22 um 18 UTC bis 22 um 20 UTC
Wind 8 kt aus West/Nordwest

TAF: LIPX 221700Z 2218/2318 08010KT 6000 RA BKN020 BECMG 2218/2220 30008KT

Wetterbeobachtungen und Prognosen von mehr als 4000 Flughäfen (METAR und TAF Bericht).

Die verfügbaren Stationen werden durch gelbe und rote Markierungen auf der Karte dargestellt.

Führen Sie die Maus auf sie, um den Namen der Station zu sehen.

Darauf klicken, um die Beobachtung von Wetterbeobachtungen und Prognosen zu sehen.

Um die Karte zu ändern : klicken Sie auf den grünen Tasten mit einem schwarzen Kreuz Zum Vergrößern, auf den grünen Button mit einem Gedankenstrich zu verkleinern, oder auf die grünen Pfeile für benachbarte Karten.


METAR-TAF: